createdAt,value
2023-04-29T00:00:49.743Z,10.45
2023-04-29T00:04:51.434Z,10.47
2023-04-29T00:08:49.697Z,10.45
2023-04-29T00:12:47.380Z,10.49
2023-04-29T00:16:40.357Z,10.48
2023-04-29T00:20:43.457Z,10.45
2023-04-29T00:24:41.952Z,10.33
2023-04-29T00:28:43.824Z,10.30
2023-04-29T00:32:42.614Z,10.27
2023-04-29T00:36:44.233Z,10.30
2023-04-29T00:40:42.763Z,10.22
2023-04-29T00:44:44.318Z,10.27
2023-04-29T00:48:41.545Z,10.23
2023-04-29T00:52:49.642Z,10.20
2023-04-29T00:56:48.784Z,10.14
2023-04-29T01:00:50.374Z,10.10
2023-04-29T01:04:48.894Z,10.08
2023-04-29T01:08:50.796Z,9.90
2023-04-29T01:12:48.820Z,9.84
2023-04-29T01:16:51.196Z,9.83
2023-04-29T01:20:49.718Z,9.83
2023-04-29T01:24:51.272Z,9.80
2023-04-29T01:28:49.703Z,9.83
2023-04-29T01:32:51.499Z,9.80
2023-04-29T01:36:49.899Z,9.74
2023-04-29T01:40:51.877Z,9.69
2023-04-29T01:44:54.636Z,9.75
2023-04-29T01:48:57.446Z,9.72
2023-04-29T01:52:55.858Z,9.62
2023-04-29T01:56:57.641Z,9.54
2023-04-29T02:00:59.786Z,9.55
2023-04-29T02:05:01.967Z,9.57
2023-04-29T02:08:59.955Z,9.62
2023-04-29T02:13:01.342Z,9.59
2023-04-29T02:16:59.810Z,9.39
2023-04-29T02:21:01.395Z,9.31
2023-04-29T02:24:59.229Z,9.24
2023-04-29T02:29:01.006Z,9.21
2023-04-29T02:32:59.078Z,9.24
2023-04-29T02:37:00.847Z,9.26
2023-04-29T02:40:58.973Z,9.22
2023-04-29T02:45:00.578Z,9.29
2023-04-29T02:48:58.870Z,9.28
2023-04-29T02:53:00.568Z,9.22
2023-04-29T02:56:59.071Z,9.22
2023-04-29T03:01:00.407Z,9.30
2023-04-29T03:05:04.907Z,9.33
2023-04-29T03:09:04.062Z,9.35
2023-04-29T03:13:05.622Z,9.40
2023-04-29T03:17:04.275Z,9.45
2023-04-29T03:21:06.578Z,9.54
2023-04-29T03:25:05.081Z,9.58
2023-04-29T03:29:07.006Z,9.53
2023-04-29T03:33:06.006Z,9.55
2023-04-29T03:37:06.975Z,9.60
2023-04-29T03:41:09.075Z,9.70
2023-04-29T03:45:11.446Z,9.85
2023-04-29T03:49:09.966Z,10.03
2023-04-29T03:53:11.539Z,10.19
2023-04-29T03:57:10.918Z,10.42
2023-04-29T04:01:13.050Z,10.57
2023-04-29T04:05:13.186Z,10.51
2023-04-29T04:09:16.965Z,10.56
2023-04-29T04:13:16.141Z,10.72
2023-04-29T04:17:17.952Z,10.87
2023-04-29T04:21:16.157Z,10.97
2023-04-29T04:25:21.361Z,11.07
2023-04-29T04:29:20.143Z,11.02
2023-04-29T04:33:30.665Z,10.93
2023-04-29T04:37:30.090Z,10.92
2023-04-29T04:41:32.655Z,11.03
2023-04-29T04:45:31.155Z,11.02
2023-04-29T04:49:33.612Z,10.98
2023-04-29T04:53:33.336Z,11.09
2023-04-29T04:57:40.643Z,11.12
2023-04-29T05:01:39.410Z,11.13
2023-04-29T05:05:40.660Z,11.20
2023-04-29T05:09:39.224Z,11.28
2023-04-29T05:13:41.193Z,11.43
2023-04-29T05:17:40.135Z,11.49
2023-04-29T05:21:41.655Z,11.55
2023-04-29T05:25:41.245Z,11.51
2023-04-29T05:29:43.143Z,11.42
2023-04-29T05:33:43.258Z,11.59
2023-04-29T05:37:44.980Z,11.63
2023-04-29T05:41:51.301Z,11.78
2023-04-29T05:45:57.206Z,11.58
2023-04-29T05:49:55.405Z,11.62
2023-04-29T05:53:56.855Z,11.77
2023-04-29T05:57:55.313Z,11.85
2023-04-29T06:01:56.723Z,11.94
2023-04-29T06:05:55.637Z,12.04
2023-04-29T06:10:13.827Z,12.12
2023-04-29T06:14:14.407Z,12.19
2023-04-29T06:18:16.349Z,12.22
2023-04-29T06:22:14.301Z,12.38
2023-04-29T06:26:22.383Z,12.56
2023-04-29T06:30:21.250Z,12.73
2023-04-29T06:34:22.370Z,12.84
2023-04-29T06:38:40.239Z,12.88
2023-04-29T06:42:44.265Z,12.99
2023-04-29T06:47:01.356Z,13.13
2023-04-29T06:51:17.825Z,13.35
2023-04-29T06:55:16.326Z,13.85
2023-04-29T06:59:17.987Z,14.48
2023-04-29T07:03:16.467Z,14.97
2023-04-29T07:07:27.331Z,15.39
2023-04-29T07:11:29.231Z,15.85
2023-04-29T07:15:27.535Z,15.85
2023-04-29T07:19:29.319Z,15.80
2023-04-29T07:23:27.298Z,15.96
2023-04-29T07:27:28.427Z,16.28
2023-04-29T07:31:26.496Z,16.50
2023-04-29T07:35:29.990Z,16.60
2023-04-29T07:39:28.410Z,16.72
2023-04-29T07:43:30.855Z,16.77
2023-04-29T07:47:29.430Z,16.82
2023-04-29T07:51:27.622Z,16.94
2023-04-29T07:55:29.338Z,17.18
2023-04-29T07:59:28.665Z,17.30
2023-04-29T08:03:30.680Z,17.36
2023-04-29T08:07:29.496Z,17.29
2023-04-29T08:11:32.958Z,17.33
2023-04-29T08:15:31.499Z,17.24
2023-04-29T08:19:33.857Z,17.07
2023-04-29T08:23:32.438Z,17.08
2023-04-29T08:27:33.906Z,17.16
2023-04-29T08:31:32.555Z,17.09
2023-04-29T08:35:33.376Z,17.21
2023-04-29T08:39:31.378Z,17.38
2023-04-29T08:43:33.161Z,17.48
2023-04-29T08:47:31.617Z,17.74
2023-04-29T08:51:33.053Z,17.96
2023-04-29T08:55:31.809Z,18.20
2023-04-29T08:59:30.408Z,18.22
2023-04-29T09:03:28.532Z,18.28
2023-04-29T09:07:30.066Z,18.42
2023-04-29T09:11:28.640Z,18.38
2023-04-29T09:15:30.222Z,18.35
2023-04-29T09:19:28.677Z,18.50
2023-04-29T09:23:30.176Z,18.56
2023-04-29T09:27:28.769Z,18.58
2023-04-29T09:31:30.258Z,18.56
2023-04-29T09:35:31.529Z,18.51
2023-04-29T09:39:29.538Z,18.38
2023-04-29T09:43:30.477Z,18.25
2023-04-29T09:47:28.675Z,18.27
2023-04-29T09:51:30.214Z,18.24
2023-04-29T09:55:28.510Z,18.06
2023-04-29T09:59:30.275Z,17.85
2023-04-29T10:03:28.786Z,17.85
2023-04-29T10:07:30.737Z,17.96
2023-04-29T10:11:28.718Z,18.02
2023-04-29T10:15:30.302Z,18.20
2023-04-29T10:19:29.737Z,18.16
2023-04-29T10:23:31.490Z,18.33
2023-04-29T10:27:29.588Z,18.52
2023-04-29T10:31:33.529Z,18.53
2023-04-29T10:35:31.787Z,18.48
2023-04-29T10:39:33.279Z,18.77
2023-04-29T10:43:32.686Z,18.83
2023-04-29T10:47:34.308Z,19.29
2023-04-29T10:51:32.916Z,19.45
2023-04-29T10:55:34.763Z,19.42
2023-04-29T10:59:32.668Z,19.51
2023-04-29T11:03:34.506Z,19.51
2023-04-29T11:07:44.799Z,19.54
2023-04-29T11:11:45.914Z,19.41
2023-04-29T11:15:43.657Z,19.28
2023-04-29T11:19:45.591Z,19.34
2023-04-29T11:23:43.772Z,19.45
2023-04-29T11:27:45.205Z,19.70
2023-04-29T11:31:44.055Z,19.78
2023-04-29T11:35:45.842Z,19.86
2023-04-29T11:39:43.803Z,20.03
2023-04-29T11:43:45.311Z,20.13
2023-04-29T11:47:44.020Z,20.25
2023-04-29T11:51:46.411Z,20.20
2023-04-29T11:55:44.893Z,19.99
2023-04-29T11:59:46.324Z,19.50
2023-04-29T12:03:45.138Z,19.44
2023-04-29T12:07:46.278Z,19.34
2023-04-29T12:11:44.808Z,18.98
2023-04-29T12:15:46.562Z,18.40
2023-04-29T12:19:44.882Z,18.59
2023-04-29T12:23:46.668Z,18.93
2023-04-29T12:27:44.811Z,18.89
2023-04-29T12:31:46.546Z,18.87
2023-04-29T12:35:48.348Z,18.80
2023-04-29T12:39:47.085Z,18.92
2023-04-29T12:43:48.568Z,18.95
2023-04-29T12:47:46.909Z,19.15
2023-04-29T12:51:47.857Z,19.29
2023-04-29T12:55:45.937Z,19.59
2023-04-29T12:59:47.413Z,19.81
2023-04-29T13:03:46.190Z,20.32
2023-04-29T13:07:48.533Z,20.55
2023-04-29T13:11:47.047Z,20.72
2023-04-29T13:15:48.587Z,21.04
2023-04-29T13:19:51.835Z,21.27
2023-04-29T13:23:53.989Z,21.48
2023-04-29T13:27:52.370Z,21.46
2023-04-29T13:31:53.977Z,21.51
2023-04-29T13:35:52.122Z,21.53
2023-04-29T13:39:57.271Z,21.68
2023-04-29T13:43:58.552Z,21.76
2023-04-29T13:48:07.218Z,21.67
2023-04-29T13:57:11.040Z,21.61
2023-04-29T14:04:34.613Z,21.73
2023-04-29T14:08:32.157Z,21.52
2023-04-29T14:12:32.900Z,21.42
2023-04-29T14:16:31.150Z,21.32
2023-04-29T14:20:32.680Z,21.14
2023-04-29T14:24:31.082Z,20.99
2023-04-29T14:28:32.555Z,20.55
2023-04-29T14:32:31.186Z,20.23
2023-04-29T14:36:32.541Z,19.95
2023-04-29T14:40:31.273Z,19.59
2023-04-29T14:44:32.508Z,19.34
2023-04-29T14:48:31.110Z,19.19
2023-04-29T14:52:32.613Z,19.04
2023-04-29T14:56:31.222Z,18.80
2023-04-29T15:00:32.735Z,18.58
2023-04-29T15:04:31.358Z,18.51
2023-04-29T15:08:32.471Z,18.44
2023-04-29T15:12:31.250Z,18.46
2023-04-29T15:16:32.117Z,18.36
2023-04-29T15:20:30.068Z,18.33
2023-04-29T15:24:30.749Z,18.35
2023-04-29T15:28:29.288Z,18.21
2023-04-29T15:32:30.592Z,18.01
2023-04-29T15:36:29.378Z,17.72
2023-04-29T15:40:30.339Z,17.61
2023-04-29T15:44:28.231Z,17.43
2023-04-29T15:48:29.745Z,17.46
2023-04-29T15:52:28.195Z,17.37
2023-04-29T15:56:29.665Z,17.30
2023-04-29T16:00:28.296Z,17.09
2023-04-29T16:04:29.794Z,16.91
2023-04-29T16:08:28.146Z,17.07
2023-04-29T16:12:29.832Z,17.01
2023-04-29T16:16:28.395Z,16.83
2023-04-29T16:20:29.859Z,16.72
2023-04-29T16:24:28.276Z,16.58
2023-04-29T16:28:29.898Z,16.56
2023-04-29T16:32:28.535Z,16.55
2023-04-29T16:36:29.764Z,16.47
2023-04-29T16:40:28.329Z,16.41
2023-04-29T16:44:29.891Z,16.34
2023-04-29T16:48:28.351Z,16.51
2023-04-29T16:52:29.880Z,16.44
2023-04-29T16:56:28.582Z,16.12
2023-04-29T17:00:30.805Z,15.93
2023-04-29T17:04:29.614Z,15.88
2023-04-29T17:08:31.352Z,15.75
2023-04-29T17:12:29.309Z,15.78
2023-04-29T17:16:27.427Z,15.79
2023-04-29T17:20:30.946Z,15.71
2023-04-29T17:24:29.284Z,15.56
2023-04-29T17:28:30.950Z,15.57
2023-04-29T17:32:29.545Z,15.53
2023-04-29T17:36:30.998Z,15.40
2023-04-29T17:40:29.542Z,15.45
2023-04-29T17:44:31.024Z,15.63
2023-04-29T17:48:29.473Z,15.53
2023-04-29T17:52:31.241Z,15.52
2023-04-29T17:56:29.443Z,15.35
2023-04-29T18:00:31.116Z,15.44
2023-04-29T18:04:29.488Z,15.55
2023-04-29T18:08:30.957Z,15.53
2023-04-29T18:12:29.627Z,15.40
2023-04-29T18:16:31.081Z,15.36
2023-04-29T18:20:29.181Z,15.35
2023-04-29T18:24:31.022Z,15.42
2023-04-29T18:28:29.397Z,15.39
2023-04-29T18:32:31.175Z,15.22
2023-04-29T18:36:29.503Z,15.02
2023-04-29T18:40:31.170Z,15.03
2023-04-29T18:44:29.630Z,15.01
2023-04-29T18:48:31.080Z,15.11
2023-04-29T18:52:29.374Z,15.11
2023-04-29T18:56:31.045Z,15.13
2023-04-29T19:00:29.509Z,15.07
2023-04-29T19:04:31.098Z,15.02
2023-04-29T19:08:35.539Z,14.84
2023-04-29T19:12:37.120Z,14.67
2023-04-29T19:16:37.191Z,14.75
2023-04-29T19:20:39.149Z,14.67
2023-04-29T19:24:37.726Z,14.80
2023-04-29T19:28:34.930Z,14.69
2023-04-29T19:32:29.477Z,14.61
2023-04-29T19:36:37.691Z,14.62
2023-04-29T19:40:35.599Z,14.73
2023-04-29T19:44:37.175Z,14.57
2023-04-29T19:48:35.568Z,14.49
2023-04-29T19:52:37.257Z,15.12
2023-04-29T19:56:35.650Z,14.82
2023-04-29T20:00:29.137Z,14.69
2023-04-29T20:04:26.431Z,14.99
2023-04-29T20:08:32.685Z,15.15
2023-04-29T20:12:32.870Z,14.81
2023-04-29T20:16:33.434Z,14.74
2023-04-29T20:20:31.444Z,14.64
2023-04-29T20:24:32.621Z,14.59
2023-04-29T20:28:30.698Z,14.30
2023-04-29T20:32:28.253Z,14.11
2023-04-29T20:36:21.386Z,13.96
2023-04-29T20:40:28.784Z,13.83
2023-04-29T20:44:28.697Z,13.83
2023-04-29T20:48:30.370Z,13.77
2023-04-29T20:52:28.737Z,13.73
2023-04-29T20:56:30.297Z,13.61
2023-04-29T21:00:28.938Z,13.73
2023-04-29T21:04:30.246Z,13.60
2023-04-29T21:08:30.890Z,13.77
2023-04-29T21:12:32.414Z,13.94
2023-04-29T21:16:30.742Z,13.96
2023-04-29T21:20:31.852Z,13.76
2023-04-29T21:24:29.713Z,13.85
2023-04-29T21:28:31.239Z,13.86
2023-04-29T21:32:29.805Z,13.98
2023-04-29T21:36:31.323Z,13.93
2023-04-29T21:40:29.774Z,13.97
2023-04-29T21:44:31.538Z,13.98
2023-04-29T21:48:29.788Z,13.93
2023-04-29T21:52:31.622Z,13.90
2023-04-29T21:56:29.946Z,13.85
2023-04-29T22:00:31.387Z,13.80
2023-04-29T22:04:29.989Z,13.81
2023-04-29T22:08:31.495Z,13.80
2023-04-29T22:12:29.779Z,13.82
2023-04-29T22:16:31.479Z,13.75
2023-04-29T22:20:30.084Z,13.54
2023-04-29T22:24:31.923Z,13.46
2023-04-29T22:28:29.933Z,13.50
2023-04-29T22:32:31.517Z,13.50
2023-04-29T22:36:29.860Z,13.47
2023-04-29T22:40:31.488Z,13.49
2023-04-29T22:44:29.839Z,13.43
2023-04-29T22:48:31.466Z,13.43
2023-04-29T22:52:30.033Z,13.42
2023-04-29T22:56:31.483Z,13.35
2023-04-29T23:00:29.923Z,13.37
2023-04-29T23:04:31.631Z,13.35
2023-04-29T23:08:36.074Z,13.35
2023-04-29T23:12:37.869Z,13.33
2023-04-29T23:16:36.086Z,13.47
2023-04-29T23:20:37.546Z,13.57
2023-04-29T23:24:35.853Z,13.35
2023-04-29T23:28:37.682Z,13.24
2023-04-29T23:32:35.976Z,13.32
2023-04-29T23:36:37.436Z,13.32
2023-04-29T23:40:36.181Z,13.26
2023-04-29T23:44:37.940Z,13.13
2023-04-29T23:48:36.004Z,12.92
2023-04-29T23:52:37.676Z,13.06
2023-04-29T23:56:35.957Z,12.86
